createdAt,value
2017-06-30T00:00:38.294Z,88.90
2017-06-30T00:03:05.787Z,88.40
2017-06-30T00:05:33.292Z,88.50
2017-06-30T00:08:00.774Z,88.50
2017-06-30T00:10:28.275Z,88.30
2017-06-30T00:12:55.770Z,88.10
2017-06-30T00:15:23.278Z,87.90
2017-06-30T00:17:50.774Z,88.00
2017-06-30T00:20:18.258Z,87.90
2017-06-30T00:22:45.758Z,88.00
2017-06-30T00:25:14.070Z,87.80
2017-06-30T00:27:41.598Z,88.50
2017-06-30T00:30:09.855Z,87.60
2017-06-30T00:32:37.364Z,87.60
2017-06-30T00:35:04.849Z,87.90
2017-06-30T00:37:32.348Z,88.20
2017-06-30T00:39:59.830Z,88.00
2017-06-30T00:42:27.341Z,88.20
2017-06-30T00:44:54.850Z,87.80
2017-06-30T00:47:22.363Z,88.00
2017-06-30T00:49:49.861Z,88.00
2017-06-30T00:52:17.398Z,88.00
2017-06-30T00:54:44.875Z,88.10
2017-06-30T00:57:12.363Z,87.80
2017-06-30T00:59:40.642Z,89.00
2017-06-30T01:02:08.895Z,88.40
2017-06-30T01:04:36.400Z,88.40
2017-06-30T01:07:04.707Z,88.40
2017-06-30T01:09:32.211Z,88.60
2017-06-30T01:11:59.699Z,88.70
2017-06-30T01:14:27.197Z,88.60
2017-06-30T01:16:54.694Z,88.70
2017-06-30T01:19:22.188Z,88.20
2017-06-30T01:21:49.671Z,87.80
2017-06-30T01:24:17.942Z,87.90
2017-06-30T01:26:45.417Z,87.70
2017-06-30T01:29:12.918Z,87.60
2017-06-30T01:31:40.398Z,87.70
2017-06-30T01:34:08.648Z,88.50
2017-06-30T01:36:36.142Z,87.80
2017-06-30T01:39:04.391Z,88.20
2017-06-30T01:41:32.671Z,87.50
2017-06-30T01:44:00.922Z,87.80
2017-06-30T01:46:28.422Z,87.80
2017-06-30T01:48:55.907Z,88.20
2017-06-30T01:51:23.414Z,88.40
2017-06-30T01:53:51.685Z,88.40
2017-06-30T01:56:19.183Z,88.20
2017-06-30T01:58:46.678Z,88.50
2017-06-30T02:01:14.187Z,89.50
2017-06-30T02:03:41.672Z,88.50
2017-06-30T02:06:09.175Z,88.70
2017-06-30T02:08:36.659Z,88.80
2017-06-30T02:11:04.152Z,88.70
2017-06-30T02:13:32.434Z,89.30
2017-06-30T02:15:59.920Z,88.70
2017-06-30T02:18:27.431Z,88.40
2017-06-30T02:20:55.341Z,88.50
2017-06-30T02:23:22.855Z,88.60
2017-06-30T02:25:50.339Z,88.70
2017-06-30T02:28:18.609Z,87.90
2017-06-30T02:30:46.866Z,87.90
2017-06-30T02:33:14.363Z,87.90
2017-06-30T02:35:41.852Z,87.50
2017-06-30T02:38:09.348Z,87.50
2017-06-30T02:40:36.850Z,87.60
2017-06-30T02:43:04.350Z,87.50
2017-06-30T02:45:31.851Z,87.40
2017-06-30T02:47:59.344Z,87.10
2017-06-30T02:50:26.824Z,86.70
2017-06-30T02:52:54.350Z,87.00
2017-06-30T02:55:21.834Z,87.40
2017-06-30T02:57:50.085Z,87.40
2017-06-30T03:00:17.590Z,87.30
2017-06-30T03:02:45.075Z,87.40
2017-06-30T03:05:12.578Z,87.50
2017-06-30T03:07:40.062Z,87.20
2017-06-30T03:10:07.555Z,87.10
2017-06-30T03:12:35.039Z,86.90
2017-06-30T03:15:02.554Z,86.90
2017-06-30T03:17:30.054Z,87.10
2017-06-30T03:19:57.538Z,87.10
2017-06-30T03:22:25.036Z,86.90
2017-06-30T03:24:52.516Z,87.10
2017-06-30T03:27:20.018Z,87.10
2017-06-30T03:29:47.507Z,87.30
2017-06-30T03:32:15.004Z,87.70
2017-06-30T03:34:42.492Z,87.80
2017-06-30T03:37:09.991Z,87.50
2017-06-30T03:39:37.482Z,87.40
2017-06-30T03:42:04.975Z,87.40
2017-06-30T03:44:33.234Z,87.20
2017-06-30T03:47:00.728Z,87.10
2017-06-30T03:49:28.212Z,87.10
2017-06-30T03:51:55.706Z,86.90
2017-06-30T03:54:23.194Z,86.90
2017-06-30T03:56:50.718Z,86.90
2017-06-30T03:59:18.202Z,86.80
2017-06-30T04:01:45.678Z,86.70
2017-06-30T04:04:13.178Z,86.50
2017-06-30T04:06:40.658Z,86.00
2017-06-30T04:09:08.174Z,86.40
2017-06-30T04:11:36.174Z,86.30
2017-06-30T04:14:04.442Z,86.30
2017-06-30T04:16:32.715Z,86.10
2017-06-30T04:19:00.219Z,86.10
2017-06-30T04:21:27.703Z,86.00
2017-06-30T04:23:55.203Z,86.20
2017-06-30T04:26:22.687Z,86.10
2017-06-30T04:28:50.167Z,85.80
2017-06-30T04:31:17.678Z,85.60
2017-06-30T04:33:45.177Z,85.50
2017-06-30T04:36:12.698Z,85.00
2017-06-30T04:38:40.190Z,84.90
2017-06-30T04:41:07.698Z,84.90
2017-06-30T04:43:35.195Z,84.90
2017-06-30T04:46:02.692Z,84.30
2017-06-30T04:48:30.174Z,84.20
2017-06-30T04:50:57.678Z,83.50
2017-06-30T04:53:25.930Z,83.60
2017-06-30T04:55:53.442Z,83.50
2017-06-30T04:58:20.927Z,83.30
2017-06-30T05:00:48.428Z,82.90
2017-06-30T05:03:16.686Z,82.60
2017-06-30T05:05:44.939Z,82.40
2017-06-30T05:08:12.442Z,82.00
2017-06-30T05:10:39.939Z,81.90
2017-06-30T05:13:07.442Z,81.40
2017-06-30T05:15:34.949Z,81.40
2017-06-30T05:18:02.743Z,81.20
2017-06-30T05:20:30.990Z,82.40
2017-06-30T05:22:59.022Z,81.50
2017-06-30T05:25:26.503Z,81.80
2017-06-30T05:27:54.002Z,81.50
2017-06-30T05:30:22.245Z,81.30
2017-06-30T05:32:49.751Z,81.20
2017-06-30T05:35:17.246Z,82.40
2017-06-30T05:37:44.750Z,82.00
2017-06-30T05:40:13.000Z,81.70
2017-06-30T05:42:41.274Z,81.70
2017-06-30T05:45:08.754Z,81.70
2017-06-30T05:47:36.243Z,81.50
2017-06-30T05:50:03.740Z,81.60
2017-06-30T05:52:31.999Z,81.60
2017-06-30T05:55:00.275Z,82.60
2017-06-30T05:57:28.526Z,81.40
2017-06-30T05:59:56.036Z,81.50
2017-06-30T06:02:23.510Z,81.70
2017-06-30T06:04:51.002Z,80.90
2017-06-30T06:07:18.485Z,80.90
2017-06-30T06:09:46.742Z,79.70
2017-06-30T06:12:14.214Z,79.60
2017-06-30T06:14:42.480Z,78.90
2017-06-30T06:17:10.723Z,79.00
2017-06-30T06:19:38.206Z,79.00
2017-06-30T06:22:06.455Z,77.00
2017-06-30T06:24:34.293Z,76.90
2017-06-30T06:27:01.769Z,74.40
2017-06-30T06:29:29.246Z,71.20
2017-06-30T06:31:56.778Z,69.00
2017-06-30T06:34:24.270Z,68.40
2017-06-30T06:36:52.527Z,69.00
2017-06-30T06:39:20.006Z,69.80
2017-06-30T06:41:47.494Z,69.50
2017-06-30T06:44:14.973Z,67.80
2017-06-30T06:46:42.464Z,67.40
2017-06-30T06:49:10.707Z,67.60
2017-06-30T06:51:38.213Z,67.40
2017-06-30T06:54:05.722Z,64.80
2017-06-30T06:56:33.216Z,62.10
2017-06-30T06:59:00.694Z,62.10
2017-06-30T07:01:28.207Z,60.30
2017-06-30T07:03:55.686Z,59.00
2017-06-30T07:06:23.195Z,58.90
2017-06-30T07:08:50.670Z,59.20
2017-06-30T07:11:18.163Z,57.30
2017-06-30T07:13:45.654Z,56.70
2017-06-30T07:16:13.126Z,55.50
2017-06-30T07:18:40.620Z,55.00
2017-06-30T07:21:08.096Z,55.10
2017-06-30T07:23:35.581Z,55.60
2017-06-30T07:26:03.826Z,56.60
2017-06-30T07:28:31.326Z,56.40
2017-06-30T07:30:58.802Z,57.50
2017-06-30T07:33:26.285Z,59.30
2017-06-30T07:35:53.759Z,59.80
2017-06-30T07:38:21.291Z,60.10
2017-06-30T07:40:48.766Z,60.50
2017-06-30T07:43:16.273Z,59.70
2017-06-30T07:45:43.753Z,58.80
2017-06-30T07:48:11.226Z,57.00
2017-06-30T07:50:38.730Z,55.30
2017-06-30T07:53:06.220Z,55.40
2017-06-30T07:55:33.714Z,56.20
2017-06-30T07:58:01.198Z,56.00
2017-06-30T08:00:28.701Z,54.80
2017-06-30T08:02:56.177Z,54.00
2017-06-30T08:05:23.667Z,53.50
2017-06-30T08:07:51.147Z,52.60
2017-06-30T08:10:18.649Z,52.40
2017-06-30T08:12:46.898Z,51.10
2017-06-30T08:15:14.405Z,51.00
2017-06-30T08:17:41.894Z,52.50
2017-06-30T08:20:09.370Z,52.60
2017-06-30T08:22:36.867Z,52.40
2017-06-30T08:25:04.346Z,52.20
2017-06-30T08:27:31.862Z,54.60
2017-06-30T08:30:00.098Z,54.30
2017-06-30T08:32:27.592Z,54.30
2017-06-30T08:34:55.076Z,54.60
2017-06-30T08:37:22.582Z,53.80
2017-06-30T08:39:50.826Z,50.80
2017-06-30T08:42:18.311Z,50.20
2017-06-30T08:44:46.571Z,49.60
2017-06-30T08:47:14.050Z,49.00
2017-06-30T08:49:41.546Z,48.30
2017-06-30T08:52:09.025Z,49.70
2017-06-30T08:54:36.538Z,51.60
2017-06-30T08:57:04.015Z,52.00
2017-06-30T08:59:31.511Z,52.60
2017-06-30T09:01:59.772Z,51.60
2017-06-30T09:04:27.286Z,51.70
2017-06-30T09:06:54.773Z,50.60
2017-06-30T09:09:22.279Z,51.10
2017-06-30T09:11:49.758Z,52.40
2017-06-30T09:14:17.274Z,54.20
2017-06-30T09:16:44.746Z,54.90
2017-06-30T09:19:12.235Z,55.40
2017-06-30T09:21:39.732Z,54.30
2017-06-30T09:24:07.974Z,52.20
2017-06-30T09:26:35.469Z,52.10
2017-06-30T09:29:02.950Z,51.00
2017-06-30T09:31:30.442Z,50.70
2017-06-30T09:33:57.932Z,50.90
2017-06-30T09:36:25.418Z,50.70
2017-06-30T09:38:52.898Z,51.70
2017-06-30T09:41:20.391Z,51.90
2017-06-30T09:43:47.875Z,51.40
2017-06-30T09:46:15.376Z,51.60
2017-06-30T09:48:42.854Z,51.00
2017-06-30T09:51:11.115Z,50.50
2017-06-30T09:53:39.389Z,50.70
2017-06-30T09:56:07.645Z,49.70
2017-06-30T09:58:35.131Z,49.60
2017-06-30T10:01:02.658Z,48.90
2017-06-30T10:03:30.142Z,48.70
2017-06-30T10:05:57.632Z,48.40
2017-06-30T10:08:25.118Z,49.30
2017-06-30T10:10:52.604Z,48.90
2017-06-30T10:13:20.110Z,46.40
2017-06-30T10:15:47.574Z,43.90
2017-06-30T10:18:15.068Z,45.10
2017-06-30T10:20:43.311Z,44.40
2017-06-30T10:23:10.811Z,44.30
2017-06-30T10:25:38.287Z,44.50
2017-06-30T10:28:05.778Z,45.20
2017-06-30T10:30:33.251Z,46.30
2017-06-30T10:33:00.754Z,47.60
2017-06-30T10:35:28.236Z,48.00
2017-06-30T10:37:55.740Z,48.80
2017-06-30T10:40:23.214Z,48.90
2017-06-30T10:42:50.694Z,47.70
2017-06-30T10:45:18.178Z,45.80
2017-06-30T10:47:46.426Z,47.10
2017-06-30T10:50:13.919Z,47.00
2017-06-30T10:52:41.409Z,47.50
2017-06-30T10:55:08.911Z,47.10
2017-06-30T10:57:37.155Z,48.60
2017-06-30T11:00:04.646Z,48.60
2017-06-30T11:02:32.128Z,48.10
2017-06-30T11:04:59.602Z,48.10
2017-06-30T11:07:27.103Z,48.40
2017-06-30T11:09:55.347Z,48.70
2017-06-30T11:12:22.836Z,48.70
2017-06-30T11:14:50.327Z,48.80
2017-06-30T11:17:17.820Z,48.60
2017-06-30T11:19:45.299Z,48.50
2017-06-30T11:22:12.799Z,47.60
2017-06-30T11:24:40.278Z,46.20
2017-06-30T11:27:07.769Z,44.20
2017-06-30T11:29:35.244Z,42.60
2017-06-30T11:32:02.738Z,42.30
2017-06-30T11:34:30.206Z,42.20
2017-06-30T11:36:57.702Z,42.90
2017-06-30T11:39:25.194Z,41.00
2017-06-30T11:41:52.690Z,41.00
2017-06-30T11:44:20.932Z,43.10
2017-06-30T11:46:48.427Z,43.10
2017-06-30T11:49:15.913Z,44.10
2017-06-30T11:51:43.394Z,43.80
2017-06-30T11:54:10.882Z,43.90
2017-06-30T11:56:38.368Z,43.40
2017-06-30T11:59:05.866Z,43.20
2017-06-30T12:01:33.343Z,44.50
2017-06-30T12:04:00.849Z,45.20
2017-06-30T12:06:28.329Z,45.10
2017-06-30T12:08:55.827Z,45.00
2017-06-30T12:11:23.312Z,45.30
2017-06-30T12:13:50.818Z,45.30
2017-06-30T12:16:19.064Z,46.80
2017-06-30T12:18:46.562Z,46.70
2017-06-30T12:21:14.039Z,47.00
2017-06-30T12:23:41.521Z,46.60
2017-06-30T12:26:09.008Z,46.00
2017-06-30T12:28:37.250Z,46.30
2017-06-30T12:31:04.739Z,46.20
2017-06-30T12:33:32.989Z,46.70
2017-06-30T12:36:00.492Z,46.60
2017-06-30T12:38:27.974Z,46.60
2017-06-30T12:40:55.469Z,46.30
2017-06-30T12:43:22.952Z,46.10
2017-06-30T12:45:50.447Z,45.60
2017-06-30T12:48:17.926Z,45.50
2017-06-30T12:50:46.182Z,45.00
2017-06-30T12:53:13.666Z,45.00
2017-06-30T12:55:41.164Z,45.70
2017-06-30T12:58:08.650Z,45.70
2017-06-30T13:00:36.150Z,46.00
2017-06-30T13:03:03.637Z,46.20
2017-06-30T13:05:31.111Z,46.30
2017-06-30T13:07:58.602Z,46.80
2017-06-30T13:10:26.083Z,45.80
2017-06-30T13:12:53.592Z,46.60
2017-06-30T13:15:21.836Z,47.10
2017-06-30T13:17:49.326Z,47.10
2017-06-30T13:20:17.568Z,47.10
2017-06-30T13:22:45.062Z,47.10
2017-06-30T13:25:12.547Z,47.30
2017-06-30T13:27:40.040Z,46.80
2017-06-30T13:30:07.528Z,46.10
2017-06-30T13:32:35.030Z,45.60
2017-06-30T13:35:02.524Z,45.80
2017-06-30T13:37:30.792Z,44.50
2017-06-30T13:39:59.037Z,44.90
2017-06-30T13:42:26.534Z,44.30
2017-06-30T13:44:54.013Z,44.70
2017-06-30T13:47:21.491Z,44.30
2017-06-30T13:49:48.987Z,44.00
2017-06-30T13:52:17.227Z,43.70
2017-06-30T13:54:44.750Z,43.70
2017-06-30T13:57:12.233Z,43.00
2017-06-30T13:59:39.738Z,43.50
2017-06-30T14:02:07.214Z,42.20
2017-06-30T14:04:34.712Z,43.10
2017-06-30T14:07:02.182Z,43.60
2017-06-30T14:09:29.675Z,43.50
2017-06-30T14:11:57.163Z,43.50
2017-06-30T14:14:24.663Z,43.30
2017-06-30T14:16:52.146Z,44.70
2017-06-30T14:19:19.646Z,44.70
2017-06-30T14:21:47.128Z,44.30
2017-06-30T14:24:14.623Z,44.00
2017-06-30T14:26:42.094Z,44.30
2017-06-30T14:29:09.582Z,43.60
2017-06-30T14:31:37.823Z,43.90
2017-06-30T14:34:05.299Z,43.90
2017-06-30T14:36:33.570Z,43.60
2017-06-30T14:39:01.061Z,43.60
2017-06-30T14:41:28.559Z,42.00
2017-06-30T14:43:56.031Z,40.80
2017-06-30T14:46:24.294Z,41.60
2017-06-30T14:48:51.770Z,41.10
2017-06-30T14:51:20.023Z,41.80
2017-06-30T14:53:47.501Z,42.40
2017-06-30T14:56:15.763Z,42.60
2017-06-30T14:58:44.007Z,42.90
2017-06-30T15:01:11.510Z,42.80
2017-06-30T15:03:38.987Z,43.00
2017-06-30T15:06:06.467Z,42.40
2017-06-30T15:08:33.961Z,42.10
2017-06-30T15:11:01.435Z,41.80
2017-06-30T15:13:28.933Z,42.30
2017-06-30T15:15:56.413Z,41.90
2017-06-30T15:18:23.906Z,42.70
2017-06-30T15:20:51.374Z,42.00
2017-06-30T15:23:18.863Z,41.90
2017-06-30T15:25:46.344Z,41.60
2017-06-30T15:28:14.613Z,41.70
2017-06-30T15:30:42.861Z,41.50
2017-06-30T15:33:10.326Z,41.60
2017-06-30T15:35:37.821Z,41.70
2017-06-30T15:38:05.298Z,41.20
2017-06-30T15:40:32.794Z,41.00
2017-06-30T15:43:01.038Z,41.40
2017-06-30T15:45:28.535Z,41.40
2017-06-30T15:47:56.019Z,41.60
2017-06-30T15:50:23.510Z,41.30
2017-06-30T15:52:50.978Z,41.70
2017-06-30T15:55:18.470Z,41.70
2017-06-30T15:57:45.938Z,42.00
2017-06-30T16:00:13.434Z,42.30
2017-06-30T16:02:40.903Z,42.30
2017-06-30T16:05:08.391Z,42.70
2017-06-30T16:07:35.898Z,42.80
2017-06-30T16:10:03.374Z,43.50
2017-06-30T16:12:31.634Z,43.10
2017-06-30T16:14:59.122Z,43.00
2017-06-30T16:17:26.612Z,43.00
2017-06-30T16:19:54.082Z,43.00
2017-06-30T16:22:21.603Z,42.10
2017-06-30T16:24:49.078Z,42.30
2017-06-30T16:27:16.578Z,42.10
2017-06-30T16:29:44.063Z,42.60
2017-06-30T16:32:11.564Z,42.70
2017-06-30T16:34:39.038Z,42.60
2017-06-30T16:37:07.294Z,43.10
2017-06-30T16:39:34.776Z,43.10
2017-06-30T16:42:03.036Z,43.20
2017-06-30T16:44:31.282Z,43.60
2017-06-30T16:46:58.775Z,43.60
2017-06-30T16:52:06.775Z,44.30
2017-06-30T16:54:35.011Z,44.60
2017-06-30T16:57:02.510Z,44.50
2017-06-30T16:59:30.770Z,44.70
2017-06-30T17:01:58.238Z,44.70
2017-06-30T17:04:26.495Z,43.80
2017-06-30T17:06:53.975Z,43.80
2017-06-30T17:09:21.495Z,43.70
2017-06-30T17:11:48.966Z,44.10
2017-06-30T17:14:17.224Z,45.10
2017-06-30T17:16:44.697Z,45.00
2017-06-30T17:19:12.963Z,47.20
2017-06-30T17:21:41.201Z,48.30
2017-06-30T17:24:08.700Z,48.30
2017-06-30T17:26:36.972Z,49.80
2017-06-30T17:29:05.242Z,50.40
2017-06-30T17:31:33.488Z,50.80
2017-06-30T17:34:00.980Z,50.60
2017-06-30T17:36:29.241Z,50.90
2017-06-30T17:38:57.482Z,51.20
2017-06-30T17:41:24.994Z,50.60
2017-06-30T17:43:52.475Z,50.30
2017-06-30T17:46:19.966Z,48.90
2017-06-30T17:48:47.447Z,48.60
2017-06-30T17:51:14.947Z,49.40
2017-06-30T17:53:42.420Z,49.20
2017-06-30T17:56:09.914Z,48.80
2017-06-30T17:58:37.395Z,49.30
2017-06-30T18:01:04.887Z,49.70
2017-06-30T18:03:32.369Z,49.50
2017-06-30T18:06:01.453Z,49.60
2017-06-30T18:08:29.694Z,49.90
2017-06-30T18:10:57.186Z,49.90
2017-06-30T18:13:25.439Z,50.80
2017-06-30T18:15:52.942Z,50.80
2017-06-30T18:18:20.422Z,51.20
2017-06-30T18:20:47.915Z,51.50
2017-06-30T18:23:15.397Z,51.70
2017-06-30T18:25:42.898Z,52.20
2017-06-30T18:28:10.379Z,52.90
2017-06-30T18:30:38.631Z,52.60
2017-06-30T18:33:06.124Z,52.60
2017-06-30T18:35:33.610Z,52.60
2017-06-30T18:38:01.107Z,52.80
2017-06-30T18:40:28.587Z,53.00
2017-06-30T18:42:56.095Z,53.60
2017-06-30T18:45:23.579Z,53.80
2017-06-30T18:47:51.840Z,54.70
2017-06-30T18:50:19.311Z,54.70
2017-06-30T18:52:47.582Z,54.60
2017-06-30T18:55:15.060Z,54.60
2017-06-30T18:57:42.566Z,54.70
2017-06-30T19:00:10.054Z,54.90
2017-06-30T19:02:37.550Z,55.20
2017-06-30T19:05:05.028Z,55.20
2017-06-30T19:07:32.514Z,55.10
2017-06-30T19:10:00.000Z,55.00
2017-06-30T19:12:27.485Z,55.30
2017-06-30T19:14:54.975Z,55.30
2017-06-30T19:17:22.459Z,56.00
2017-06-30T19:19:49.950Z,56.10
2017-06-30T19:22:17.426Z,56.20
2017-06-30T19:24:44.919Z,56.60
2017-06-30T19:27:12.398Z,56.10
2017-06-30T19:29:39.896Z,55.20
2017-06-30T19:32:07.371Z,54.80
2017-06-30T19:34:34.869Z,54.70
2017-06-30T19:37:02.350Z,54.40
2017-06-30T19:39:29.839Z,54.60
2017-06-30T19:41:57.319Z,54.40
2017-06-30T19:44:24.824Z,54.30
2017-06-30T19:46:52.299Z,54.60
2017-06-30T19:49:19.772Z,55.00
2017-06-30T19:51:47.259Z,54.90
2017-06-30T19:54:14.743Z,54.60
2017-06-30T19:56:42.241Z,55.10
2017-06-30T19:59:09.727Z,55.10
2017-06-30T20:01:37.227Z,55.60
2017-06-30T20:04:04.707Z,56.00
2017-06-30T20:06:32.207Z,56.70
2017-06-30T20:08:59.690Z,56.80
2017-06-30T20:11:27.951Z,56.60
2017-06-30T20:13:56.191Z,56.10
2017-06-30T20:16:23.700Z,56.10
2017-06-30T20:18:51.188Z,56.30
2017-06-30T20:21:18.686Z,54.60
2017-06-30T20:23:46.164Z,54.30
2017-06-30T20:26:13.638Z,54.50
2017-06-30T20:28:41.143Z,54.10
2017-06-30T20:31:09.534Z,53.30
2017-06-30T20:33:37.790Z,52.20
2017-06-30T20:36:05.273Z,52.20
2017-06-30T20:38:33.544Z,52.10
2017-06-30T20:41:01.793Z,52.10
2017-06-30T20:43:29.287Z,52.10
2017-06-30T20:45:56.788Z,52.30
2017-06-30T20:48:24.294Z,52.60
2017-06-30T20:50:51.802Z,52.70
2017-06-30T20:53:19.278Z,52.80
2017-06-30T20:55:47.538Z,53.60
2017-06-30T20:58:15.023Z,53.00
2017-06-30T21:00:42.523Z,53.30
2017-06-30T21:03:10.000Z,53.30
2017-06-30T21:05:38.261Z,53.50
2017-06-30T21:08:05.998Z,53.70
2017-06-30T21:10:33.486Z,53.80
2017-06-30T21:13:00.974Z,54.10
2017-06-30T21:15:29.227Z,54.30
2017-06-30T21:17:57.479Z,54.60
2017-06-30T21:20:24.967Z,54.60
2017-06-30T21:22:53.216Z,54.90
2017-06-30T21:25:20.706Z,54.90
2017-06-30T21:27:48.194Z,55.20
2017-06-30T21:30:15.699Z,55.30
2017-06-30T21:32:43.173Z,55.40
2017-06-30T21:35:10.666Z,55.40
2017-06-30T21:37:38.141Z,55.50
2017-06-30T21:40:05.639Z,55.60
2017-06-30T21:42:33.120Z,55.70
2017-06-30T21:45:00.621Z,55.90
2017-06-30T21:47:28.868Z,56.00
2017-06-30T21:49:56.364Z,55.80
2017-06-30T21:52:23.858Z,55.80
2017-06-30T21:54:51.366Z,55.80
2017-06-30T21:57:19.618Z,56.00
2017-06-30T21:59:47.101Z,56.00
2017-06-30T22:02:15.365Z,56.00
2017-06-30T22:04:43.611Z,56.00
2017-06-30T22:07:11.106Z,56.00
2017-06-30T22:09:38.586Z,56.10
2017-06-30T22:12:06.090Z,56.20
2017-06-30T22:14:33.575Z,56.30
2017-06-30T22:17:01.067Z,56.50
2017-06-30T22:19:28.552Z,56.70
2017-06-30T22:21:56.058Z,56.80
2017-06-30T22:24:23.548Z,56.90
2017-06-30T22:26:51.020Z,56.90
2017-06-30T22:29:19.283Z,57.80
2017-06-30T22:31:46.780Z,57.30
2017-06-30T22:34:14.279Z,57.60
2017-06-30T22:36:41.763Z,57.90
2017-06-30T22:39:10.023Z,58.10
2017-06-30T22:41:37.502Z,58.10
2017-06-30T22:44:05.758Z,58.40
2017-06-30T22:46:33.238Z,58.40
2017-06-30T22:49:00.746Z,58.50
2017-06-30T22:51:28.230Z,58.70
2017-06-30T22:53:56.489Z,59.10
2017-06-30T22:56:23.963Z,59.10
2017-06-30T22:58:52.222Z,59.60
2017-06-30T23:01:20.473Z,60.50
2017-06-30T23:03:47.953Z,59.70
2017-06-30T23:06:16.215Z,60.10
2017-06-30T23:08:43.695Z,60.10
2017-06-30T23:11:11.959Z,60.80
2017-06-30T23:13:40.222Z,61.00
2017-06-30T23:16:07.723Z,60.90
2017-06-30T23:18:35.209Z,61.50
2017-06-30T23:21:02.698Z,61.90
2017-06-30T23:23:30.181Z,62.60
2017-06-30T23:25:57.675Z,63.20
2017-06-30T23:28:25.153Z,63.70
2017-06-30T23:30:53.395Z,65.20
2017-06-30T23:33:20.894Z,64.30
2017-06-30T23:35:48.378Z,64.70
2017-06-30T23:38:15.867Z,65.60
2017-06-30T23:40:43.343Z,66.10
2017-06-30T23:43:11.610Z,67.00
2017-06-30T23:45:39.855Z,67.70
2017-06-30T23:48:07.354Z,67.20
2017-06-30T23:50:34.838Z,67.50
2017-06-30T23:53:02.335Z,67.90
2017-06-30T23:55:29.819Z,67.90
2017-06-30T23:57:57.288Z,68.00
